createdAt,value
2023-10-19T00:00:47.074Z,29.00
2023-10-19T00:01:49.721Z,28.98
2023-10-19T00:02:56.352Z,28.94
2023-10-19T00:03:59.143Z,28.94
2023-10-19T00:05:01.517Z,28.92
2023-10-19T00:06:04.061Z,28.89
2023-10-19T00:07:09.159Z,28.89
2023-10-19T00:08:22.271Z,28.89
2023-10-19T00:09:24.711Z,28.87
2023-10-19T00:10:33.966Z,28.86
2023-10-19T00:11:37.009Z,28.86
2023-10-19T00:12:39.864Z,28.82
2023-10-19T00:13:45.395Z,28.83
2023-10-19T00:14:48.067Z,28.81
2023-10-19T00:15:53.716Z,28.79
2023-10-19T00:17:01.771Z,28.80
2023-10-19T00:18:16.651Z,28.79
2023-10-19T00:19:21.119Z,28.80
2023-10-19T00:20:49.550Z,28.79
2023-10-19T00:21:51.919Z,28.80
2023-10-19T00:22:54.840Z,28.77
2023-10-19T00:23:59.244Z,28.76
2023-10-19T00:25:03.530Z,28.73
2023-10-19T00:26:18.977Z,28.73
2023-10-19T00:27:24.074Z,28.76
2023-10-19T00:28:28.260Z,28.73
2023-10-19T00:29:41.692Z,28.70
2023-10-19T00:30:46.444Z,28.73
2023-10-19T00:31:49.719Z,28.72
2023-10-19T00:32:52.323Z,28.70
2023-10-19T00:33:58.504Z,28.69
2023-10-19T00:35:09.004Z,28.66
2023-10-19T00:36:14.515Z,28.64
2023-10-19T00:37:20.893Z,28.66
2023-10-19T00:38:40.196Z,28.64
2023-10-19T00:39:51.590Z,28.63
2023-10-19T00:40:59.927Z,28.62
2023-10-19T00:42:03.438Z,28.61
2023-10-19T00:43:11.676Z,28.59
2023-10-19T00:44:17.749Z,28.60
2023-10-19T00:45:26.167Z,28.59
2023-10-19T00:46:39.461Z,28.58
2023-10-19T00:47:43.295Z,28.58
2023-10-19T00:48:50.908Z,28.55
2023-10-19T00:49:55.520Z,28.54
2023-10-19T00:51:08.241Z,28.52
2023-10-19T00:52:18.042Z,28.55
2023-10-19T00:53:20.484Z,28.53
2023-10-19T00:54:37.122Z,28.56
2023-10-19T00:55:39.804Z,28.52
2023-10-19T00:56:58.087Z,28.50
2023-10-19T00:58:05.088Z,28.52
2023-10-19T00:59:20.342Z,28.49
2023-10-19T01:00:31.251Z,28.47
2023-10-19T01:01:37.863Z,28.46
2023-10-19T01:02:47.466Z,28.45
2023-10-19T01:03:53.613Z,28.44
2023-10-19T01:04:57.711Z,28.43
2023-10-19T01:06:01.250Z,28.40
2023-10-19T01:07:12.822Z,28.40
2023-10-19T01:08:34.162Z,28.40
2023-10-19T01:09:37.713Z,28.41
2023-10-19T01:10:41.103Z,28.38
2023-10-19T01:11:51.033Z,28.37
2023-10-19T01:12:53.736Z,28.36
2023-10-19T01:13:56.622Z,28.34
2023-10-19T01:15:17.571Z,28.40
2023-10-19T01:16:23.378Z,28.33
2023-10-19T01:17:28.196Z,28.31
2023-10-19T01:18:33.672Z,28.31
2023-10-19T01:19:35.958Z,28.28
2023-10-19T01:20:56.467Z,28.29
2023-10-19T01:22:04.193Z,28.29
2023-10-19T01:23:11.324Z,28.32
2023-10-19T01:24:18.095Z,28.26
2023-10-19T01:25:25.852Z,28.27
2023-10-19T01:26:28.551Z,28.27
2023-10-19T01:27:32.637Z,28.23
2023-10-19T01:28:43.257Z,28.24
2023-10-19T01:29:45.737Z,28.25
2023-10-19T01:30:53.020Z,28.23
2023-10-19T01:32:07.768Z,28.24
2023-10-19T01:33:22.411Z,28.25
2023-10-19T01:34:27.903Z,28.25
2023-10-19T01:35:50.174Z,28.23
2023-10-19T01:36:52.537Z,28.26
2023-10-19T01:37:54.978Z,28.22
2023-10-19T01:39:11.606Z,28.20
2023-10-19T01:40:21.624Z,28.23
2023-10-19T01:41:25.739Z,28.21
2023-10-19T01:42:28.367Z,28.19
2023-10-19T01:43:33.994Z,28.19
2023-10-19T01:44:37.437Z,28.17
2023-10-19T01:45:40.098Z,28.17
2023-10-19T01:46:45.073Z,28.17
2023-10-19T01:47:47.803Z,28.17
2023-10-19T01:48:56.004Z,28.15
2023-10-19T01:49:58.307Z,28.17
2023-10-19T01:51:04.860Z,28.18
2023-10-19T01:52:07.876Z,28.17
2023-10-19T01:53:16.716Z,28.15
2023-10-19T01:54:24.322Z,28.15
2023-10-19T01:55:27.647Z,28.16
2023-10-19T01:56:30.708Z,28.13
2023-10-19T01:57:33.450Z,28.12
2023-10-19T01:58:38.079Z,28.10
2023-10-19T01:59:40.778Z,28.11
2023-10-19T02:00:45.198Z,28.11
2023-10-19T02:01:47.575Z,28.12
2023-10-19T02:02:51.205Z,28.09
2023-10-19T02:04:04.438Z,28.09
2023-10-19T02:05:10.869Z,28.09
2023-10-19T02:06:21.025Z,28.08
2023-10-19T02:07:24.470Z,28.10
2023-10-19T02:08:30.061Z,28.11
2023-10-19T02:09:34.217Z,28.08
2023-10-19T02:10:37.086Z,28.05
2023-10-19T02:11:42.925Z,28.05
2023-10-19T02:12:47.798Z,28.05
2023-10-19T02:13:53.707Z,28.05
2023-10-19T02:14:56.192Z,28.04
2023-10-19T02:15:58.709Z,28.04
2023-10-19T02:17:04.963Z,28.04
2023-10-19T02:18:10.069Z,28.03
2023-10-19T02:19:13.518Z,28.04
2023-10-19T02:20:33.754Z,28.02
2023-10-19T02:21:41.664Z,28.04
2023-10-19T02:22:44.254Z,28.00
2023-10-19T02:23:46.939Z,28.01
2023-10-19T02:24:49.167Z,27.97
2023-10-19T02:25:51.569Z,27.96
2023-10-19T02:26:57.933Z,27.97
2023-10-19T02:28:00.550Z,27.97
2023-10-19T02:29:08.791Z,27.96
2023-10-19T02:30:12.762Z,27.96
2023-10-19T02:31:23.410Z,27.96
2023-10-19T02:32:25.837Z,27.94
2023-10-19T02:33:28.928Z,27.93
2023-10-19T02:34:31.906Z,27.94
2023-10-19T02:35:36.537Z,27.92
2023-10-19T02:36:40.668Z,27.92
2023-10-19T02:37:43.159Z,27.91
2023-10-19T02:38:49.706Z,27.88
2023-10-19T02:39:51.962Z,27.87
2023-10-19T02:40:54.199Z,27.88
2023-10-19T02:41:57.110Z,27.88
2023-10-19T02:43:04.680Z,27.88
2023-10-19T02:44:11.420Z,27.91
2023-10-19T02:45:16.430Z,27.88
2023-10-19T02:46:19.208Z,27.88
2023-10-19T02:47:21.700Z,27.86
2023-10-19T02:48:25.546Z,27.86
2023-10-19T02:49:31.341Z,27.86
2023-10-19T02:50:33.711Z,27.85
2023-10-19T02:51:36.063Z,27.85
2023-10-19T02:52:38.376Z,27.83
2023-10-19T02:53:43.952Z,27.86
2023-10-19T02:54:47.037Z,27.82
2023-10-19T02:55:52.729Z,27.82
2023-10-19T02:56:58.097Z,27.82
2023-10-19T02:58:00.560Z,27.82
2023-10-19T02:59:05.106Z,27.82
2023-10-19T03:00:15.473Z,27.81
2023-10-19T03:01:23.205Z,27.84
2023-10-19T03:02:27.626Z,27.84
2023-10-19T03:03:32.293Z,27.83
2023-10-19T03:04:37.700Z,27.80
2023-10-19T03:05:42.745Z,27.81
2023-10-19T03:06:45.467Z,27.80
2023-10-19T03:07:47.871Z,27.79
2023-10-19T03:09:02.677Z,27.80
2023-10-19T03:10:06.639Z,27.80
2023-10-19T03:11:08.942Z,27.78
2023-10-19T03:12:11.770Z,27.77
2023-10-19T03:13:16.372Z,27.76
2023-10-19T03:14:19.583Z,27.77
2023-10-19T03:15:22.158Z,27.76
2023-10-19T03:16:25.207Z,27.76
2023-10-19T03:17:30.261Z,27.77
2023-10-19T03:18:32.992Z,27.75
2023-10-19T03:19:36.123Z,27.73
2023-10-19T03:20:39.669Z,27.73
2023-10-19T03:21:48.000Z,27.75
2023-10-19T03:22:50.654Z,27.76
2023-10-19T03:23:53.168Z,27.75
2023-10-19T03:25:21.651Z,27.72
2023-10-19T03:26:38.104Z,27.77
2023-10-19T03:27:40.645Z,27.77
2023-10-19T03:28:44.536Z,27.72
2023-10-19T03:29:57.556Z,27.72
2023-10-19T03:31:00.768Z,27.73
2023-10-19T03:32:03.249Z,27.73
2023-10-19T03:33:07.034Z,27.71
2023-10-19T03:34:13.147Z,27.71
2023-10-19T03:35:17.218Z,27.71
2023-10-19T03:36:19.526Z,27.72
2023-10-19T03:37:23.250Z,27.71
2023-10-19T03:38:25.555Z,27.73
2023-10-19T03:39:29.051Z,27.70
2023-10-19T03:40:33.591Z,27.71
2023-10-19T03:41:37.498Z,27.72
2023-10-19T03:42:42.624Z,27.71
2023-10-19T03:43:45.223Z,27.71
2023-10-19T03:44:50.548Z,27.72
2023-10-19T03:45:54.005Z,27.72
2023-10-19T03:47:02.486Z,27.71
2023-10-19T03:48:10.665Z,27.73
2023-10-19T03:49:13.359Z,27.72
2023-10-19T03:50:16.991Z,27.71
2023-10-19T03:51:19.418Z,27.70
2023-10-19T03:52:22.320Z,27.69
2023-10-19T03:53:25.940Z,27.70
2023-10-19T03:54:29.485Z,27.70
2023-10-19T03:55:32.027Z,27.67
2023-10-19T03:56:34.835Z,27.66
2023-10-19T03:57:37.122Z,27.68
2023-10-19T03:58:41.753Z,27.71
2023-10-19T03:59:44.281Z,27.69
2023-10-19T04:00:46.853Z,27.70
2023-10-19T04:01:49.325Z,27.67
2023-10-19T04:02:56.705Z,27.70
2023-10-19T04:04:01.845Z,27.70
2023-10-19T04:05:05.467Z,27.73
2023-10-19T04:06:14.779Z,27.72
2023-10-19T04:07:23.281Z,27.75
2023-10-19T04:08:27.756Z,27.76
2023-10-19T04:09:30.746Z,27.75
2023-10-19T04:10:36.297Z,27.75
2023-10-19T04:11:51.086Z,27.77
2023-10-19T04:12:55.670Z,27.80
2023-10-19T04:14:00.489Z,27.80
2023-10-19T04:15:20.387Z,27.80
2023-10-19T04:16:24.749Z,27.84
2023-10-19T04:17:27.381Z,27.82
2023-10-19T04:18:30.301Z,27.80
2023-10-19T04:19:33.497Z,27.81
2023-10-19T04:20:54.155Z,27.81
2023-10-19T04:21:56.966Z,27.84
2023-10-19T04:23:00.212Z,27.83
2023-10-19T04:24:02.584Z,27.84
2023-10-19T04:25:07.507Z,27.83
2023-10-19T04:26:12.889Z,27.86
2023-10-19T04:27:16.382Z,27.88
2023-10-19T04:28:23.007Z,27.86
2023-10-19T04:29:28.591Z,27.87
2023-10-19T04:30:34.296Z,27.89
2023-10-19T04:31:38.390Z,27.91
2023-10-19T04:32:41.374Z,27.90
2023-10-19T04:33:47.400Z,27.89
2023-10-19T04:34:49.874Z,27.90
2023-10-19T04:35:56.990Z,27.91
2023-10-19T04:36:59.912Z,27.91
2023-10-19T04:38:03.204Z,27.92
2023-10-19T04:39:06.521Z,27.93
2023-10-19T04:40:12.660Z,27.94
2023-10-19T04:41:16.378Z,27.94
2023-10-19T04:42:20.827Z,27.94
2023-10-19T04:43:23.179Z,27.95
2023-10-19T04:44:25.550Z,27.95
2023-10-19T04:45:27.985Z,27.93
2023-10-19T04:46:30.784Z,27.95
2023-10-19T04:47:37.266Z,27.96
2023-10-19T04:48:43.494Z,28.00
2023-10-19T04:49:45.965Z,27.96
2023-10-19T04:50:48.738Z,27.97
2023-10-19T04:51:51.366Z,27.95
2023-10-19T04:52:53.799Z,27.95
2023-10-19T04:53:56.449Z,27.96
2023-10-19T04:54:59.901Z,27.94
2023-10-19T04:56:04.884Z,27.95
2023-10-19T04:57:07.227Z,27.95
2023-10-19T04:58:11.516Z,27.96
2023-10-19T04:59:13.922Z,27.96
2023-10-19T05:00:16.826Z,27.96
2023-10-19T05:01:19.601Z,27.95
2023-10-19T05:02:22.078Z,27.94
2023-10-19T05:03:25.312Z,27.95
2023-10-19T05:04:29.099Z,27.96
2023-10-19T05:05:31.638Z,27.95
2023-10-19T05:06:34.418Z,27.95
2023-10-19T05:07:36.900Z,27.95
2023-10-19T05:08:39.301Z,27.96
2023-10-19T05:09:41.943Z,27.95
2023-10-19T05:10:44.910Z,27.94
2023-10-19T05:11:47.543Z,27.94
2023-10-19T05:12:50.160Z,27.94
2023-10-19T05:13:53.030Z,27.95
2023-10-19T05:14:55.621Z,27.94
2023-10-19T05:16:00.495Z,27.94
2023-10-19T05:17:06.634Z,27.96
2023-10-19T05:18:09.732Z,27.98
2023-10-19T05:19:12.882Z,27.97
2023-10-19T05:20:15.631Z,27.96
2023-10-19T05:21:17.938Z,27.96
2023-10-19T05:22:20.582Z,27.95
2023-10-19T05:23:26.809Z,28.00
2023-10-19T05:24:30.224Z,27.97
2023-10-19T05:25:32.696Z,27.94
2023-10-19T05:26:38.213Z,27.99
2023-10-19T05:27:40.820Z,27.95
2023-10-19T05:28:44.210Z,27.97
2023-10-19T05:29:46.849Z,27.96
2023-10-19T05:30:50.921Z,27.95
2023-10-19T05:31:59.326Z,27.96
2023-10-19T05:33:07.465Z,27.96
2023-10-19T05:34:10.083Z,27.96
2023-10-19T05:35:14.690Z,27.96
2023-10-19T05:36:18.580Z,27.96
2023-10-19T05:37:21.055Z,27.97
2023-10-19T05:38:23.671Z,27.96
2023-10-19T05:39:29.229Z,27.96
2023-10-19T05:40:31.869Z,27.97
2023-10-19T05:41:35.331Z,27.97
2023-10-19T05:42:37.609Z,27.95
2023-10-19T05:43:40.416Z,27.95
2023-10-19T05:44:42.717Z,27.96
2023-10-19T05:45:45.777Z,27.95
2023-10-19T05:46:48.192Z,27.93
2023-10-19T05:47:50.722Z,27.95
2023-10-19T05:48:57.514Z,27.94
2023-10-19T05:50:00.591Z,27.96
2023-10-19T05:51:04.300Z,27.98
2023-10-19T05:52:06.742Z,27.95
2023-10-19T05:53:09.296Z,27.96
2023-10-19T05:54:11.843Z,27.95
2023-10-19T05:55:14.431Z,27.96
2023-10-19T05:56:18.486Z,27.96
2023-10-19T05:57:21.104Z,27.95
2023-10-19T05:58:23.527Z,27.96
2023-10-19T05:59:28.182Z,27.95
2023-10-19T06:00:30.707Z,27.96
2023-10-19T06:01:33.809Z,27.96
2023-10-19T06:02:36.459Z,27.98
2023-10-19T06:03:40.143Z,27.96
2023-10-19T06:04:42.736Z,27.96
2023-10-19T06:05:45.139Z,27.96
2023-10-19T06:06:50.646Z,27.96
2023-10-19T06:07:53.483Z,27.97
2023-10-19T06:08:56.911Z,27.96
2023-10-19T06:10:02.324Z,27.96
2023-10-19T06:11:07.903Z,27.96
2023-10-19T06:12:11.066Z,27.98
2023-10-19T06:13:15.636Z,27.95
2023-10-19T06:14:18.773Z,27.96
2023-10-19T06:15:24.687Z,27.95
2023-10-19T06:16:27.235Z,27.94
2023-10-19T06:17:29.906Z,27.95
2023-10-19T06:18:32.942Z,27.96
2023-10-19T06:19:35.305Z,27.94
2023-10-19T06:20:38.363Z,27.95
2023-10-19T06:21:41.002Z,27.96
2023-10-19T06:22:43.305Z,27.95
2023-10-19T06:23:45.956Z,27.96
2023-10-19T06:24:48.702Z,27.95
2023-10-19T06:25:52.545Z,27.95
2023-10-19T06:26:55.268Z,27.98
2023-10-19T06:27:58.998Z,27.96
2023-10-19T06:29:02.452Z,27.97
2023-10-19T06:30:05.133Z,27.95
2023-10-19T06:31:07.548Z,27.95
2023-10-19T06:32:10.448Z,27.95
2023-10-19T06:33:13.364Z,27.95
2023-10-19T06:34:16.274Z,27.95
2023-10-19T06:35:19.921Z,27.95
2023-10-19T06:36:22.676Z,27.93
2023-10-19T06:37:25.000Z,27.93
2023-10-19T06:38:27.597Z,27.90
2023-10-19T06:39:29.835Z,27.88
2023-10-19T06:40:34.993Z,27.84
2023-10-19T06:41:37.454Z,27.83
2023-10-19T06:42:40.350Z,27.82
2023-10-19T06:43:43.431Z,27.78
2023-10-19T06:44:45.763Z,27.76
2023-10-19T06:45:48.080Z,27.74
2023-10-19T06:46:50.401Z,27.72
2023-10-19T06:47:53.625Z,27.68
2023-10-19T06:49:01.096Z,27.66
2023-10-19T06:50:05.800Z,27.67
2023-10-19T06:51:08.360Z,27.63
2023-10-19T06:52:12.683Z,27.62
2023-10-19T06:53:15.092Z,27.61
2023-10-19T06:54:17.428Z,27.59
2023-10-19T06:55:21.502Z,27.59
2023-10-19T06:56:24.073Z,27.59
2023-10-19T06:57:26.509Z,27.59
2023-10-19T06:58:28.875Z,27.58
2023-10-19T06:59:34.296Z,27.58
2023-10-19T07:00:45.257Z,27.59
2023-10-19T07:01:49.986Z,27.63
2023-10-19T07:02:53.708Z,27.63
2023-10-19T07:03:58.108Z,27.65
2023-10-19T07:05:00.489Z,27.66
2023-10-19T07:06:06.952Z,27.65
2023-10-19T07:07:11.723Z,27.67
2023-10-19T07:08:13.970Z,27.67
2023-10-19T07:09:16.780Z,27.68
2023-10-19T07:10:20.332Z,27.70
2023-10-19T07:11:22.827Z,27.72
2023-10-19T07:12:25.000Z,27.72
2023-10-19T07:13:28.994Z,27.73
2023-10-19T07:14:33.660Z,27.74
2023-10-19T07:15:35.945Z,27.75
2023-10-19T07:16:39.638Z,27.78
2023-10-19T07:17:43.027Z,27.80
2023-10-19T07:18:45.711Z,27.82
2023-10-19T07:19:50.030Z,27.82
2023-10-19T07:21:02.018Z,27.85
2023-10-19T07:22:05.921Z,27.86
2023-10-19T07:23:11.343Z,27.87
2023-10-19T07:24:14.132Z,27.87
2023-10-19T07:25:16.965Z,27.87
2023-10-19T07:26:21.006Z,27.88
2023-10-19T07:27:36.933Z,27.90
2023-10-19T07:28:41.081Z,27.96
2023-10-19T07:29:44.422Z,27.95
2023-10-19T07:30:47.585Z,27.94
2023-10-19T07:31:50.270Z,27.96
2023-10-19T07:33:00.166Z,27.99
2023-10-19T07:34:03.190Z,27.99
2023-10-19T07:35:05.990Z,27.99
2023-10-19T07:36:15.605Z,28.04
2023-10-19T07:37:18.116Z,28.01
2023-10-19T07:38:23.952Z,28.02
2023-10-19T07:39:30.996Z,28.01
2023-10-19T07:40:33.325Z,28.02
2023-10-19T07:41:37.438Z,28.04
2023-10-19T07:42:40.253Z,28.04
2023-10-19T07:43:42.697Z,28.01
2023-10-19T07:44:45.274Z,28.00
2023-10-19T07:45:50.774Z,27.98
2023-10-19T07:46:53.512Z,27.99
2023-10-19T07:47:55.891Z,27.97
2023-10-19T07:49:00.528Z,27.93
2023-10-19T07:50:04.584Z,27.96
2023-10-19T07:51:07.016Z,27.97
2023-10-19T07:52:12.095Z,27.97
2023-10-19T07:53:14.642Z,27.97
2023-10-19T07:54:17.016Z,27.97
2023-10-19T07:55:20.385Z,28.00
2023-10-19T07:56:23.386Z,28.00
2023-10-19T07:57:26.365Z,27.99
2023-10-19T07:58:29.608Z,28.01
2023-10-19T07:59:32.358Z,28.00
2023-10-19T08:00:35.725Z,28.03
2023-10-19T08:01:38.176Z,28.04
2023-10-19T08:02:42.921Z,28.04
2023-10-19T08:03:45.522Z,28.07
2023-10-19T08:04:48.228Z,28.07
2023-10-19T08:05:50.445Z,28.07
2023-10-19T08:06:53.164Z,28.08
2023-10-19T08:07:58.626Z,28.09
2023-10-19T08:09:00.956Z,28.07
2023-10-19T08:10:03.887Z,28.10
2023-10-19T08:11:07.254Z,28.11
2023-10-19T08:12:10.501Z,28.13
2023-10-19T08:13:14.218Z,28.13
2023-10-19T08:14:16.649Z,28.15
2023-10-19T08:15:19.508Z,28.16
2023-10-19T08:16:22.005Z,28.16
2023-10-19T08:17:24.544Z,28.20
2023-10-19T08:18:26.995Z,28.22
2023-10-19T08:19:32.519Z,28.22
2023-10-19T08:20:38.379Z,28.26
2023-10-19T08:21:40.810Z,28.27
2023-10-19T08:22:44.105Z,28.27
2023-10-19T08:23:47.271Z,28.27
2023-10-19T08:24:51.161Z,28.27
2023-10-19T08:25:57.364Z,28.27
2023-10-19T08:27:00.940Z,28.29
2023-10-19T08:28:03.557Z,28.28
2023-10-19T08:29:13.923Z,28.32
2023-10-19T08:30:21.268Z,28.33
2023-10-19T08:31:25.682Z,28.34
2023-10-19T08:32:28.322Z,28.33
2023-10-19T08:33:31.533Z,28.34
2023-10-19T08:34:38.349Z,28.37
2023-10-19T08:35:40.914Z,28.35
2023-10-19T08:36:43.945Z,28.34
2023-10-19T08:37:47.505Z,28.34
2023-10-19T08:38:50.545Z,28.34
2023-10-19T08:39:52.987Z,28.36
2023-10-19T08:40:55.909Z,28.37
2023-10-19T08:42:00.374Z,28.38
2023-10-19T08:43:02.737Z,28.39
2023-10-19T08:44:11.691Z,28.39
2023-10-19T08:45:15.359Z,28.41
2023-10-19T08:46:18.252Z,28.41
2023-10-19T08:47:21.152Z,28.41
2023-10-19T08:48:24.732Z,28.43
2023-10-19T08:49:30.057Z,28.44
2023-10-19T08:50:34.868Z,28.45
2023-10-19T08:51:39.182Z,28.46
2023-10-19T08:52:44.132Z,28.45
2023-10-19T08:53:47.928Z,28.46
2023-10-19T08:54:50.748Z,28.47
2023-10-19T08:55:55.843Z,28.47
2023-10-19T08:57:01.020Z,28.48
2023-10-19T08:58:06.945Z,28.49
2023-10-19T08:59:18.455Z,28.55
2023-10-19T09:00:26.060Z,28.53
2023-10-19T09:01:30.147Z,28.53
2023-10-19T09:02:32.480Z,28.52
2023-10-19T09:03:36.030Z,28.51
2023-10-19T09:04:48.567Z,28.57
2023-10-19T09:05:51.335Z,28.56
2023-10-19T09:06:56.409Z,28.54
2023-10-19T09:08:01.127Z,28.54
2023-10-19T09:09:06.266Z,28.55
2023-10-19T09:10:16.363Z,28.59
2023-10-19T09:11:21.942Z,28.57
2023-10-19T09:12:24.516Z,28.59
2023-10-19T09:13:26.903Z,28.61
2023-10-19T09:14:34.866Z,28.63
2023-10-19T09:15:42.624Z,28.65
2023-10-19T09:16:58.706Z,28.72
2023-10-19T09:18:15.113Z,28.75
2023-10-19T09:19:17.629Z,28.69
2023-10-19T09:20:28.262Z,28.67
2023-10-19T09:21:30.706Z,28.69
2023-10-19T09:22:45.670Z,28.72
2023-10-19T09:23:48.790Z,28.69
2023-10-19T09:24:56.770Z,28.69
2023-10-19T09:26:08.965Z,28.71
2023-10-19T09:27:11.861Z,28.72
2023-10-19T09:28:15.225Z,28.70
2023-10-19T09:29:20.318Z,28.71
2023-10-19T09:30:25.448Z,28.72
2023-10-19T09:31:28.355Z,28.72
2023-10-19T09:32:34.374Z,28.73
2023-10-19T09:33:37.243Z,28.72
2023-10-19T09:34:44.999Z,28.74
2023-10-19T09:35:49.737Z,28.76
2023-10-19T09:36:52.785Z,28.77
2023-10-19T09:37:56.610Z,28.78
2023-10-19T09:38:59.234Z,28.78
2023-10-19T09:40:02.609Z,28.80
2023-10-19T09:41:07.854Z,28.80
2023-10-19T09:42:17.699Z,28.83
2023-10-19T09:43:31.977Z,28.90
2023-10-19T09:44:42.178Z,28.86
2023-10-19T09:45:52.936Z,28.89
2023-10-19T09:46:58.658Z,28.87
2023-10-19T09:48:06.485Z,28.87
2023-10-19T09:49:12.665Z,28.86
2023-10-19T09:50:14.930Z,28.86
2023-10-19T09:51:19.291Z,28.88
2023-10-19T09:52:21.997Z,28.90
2023-10-19T09:53:32.558Z,28.95
2023-10-19T09:55:07.297Z,29.02
2023-10-19T09:56:16.556Z,28.96
2023-10-19T09:57:32.209Z,28.93
2023-10-19T09:58:50.477Z,29.00
2023-10-19T10:00:00.263Z,28.96
2023-10-19T10:01:04.270Z,28.93
2023-10-19T10:02:14.189Z,28.96
2023-10-19T10:03:55.171Z,29.07
2023-10-19T10:04:58.850Z,28.99
2023-10-19T10:06:01.298Z,28.95
2023-10-19T10:07:07.247Z,28.93
2023-10-19T10:08:18.874Z,29.02
2023-10-19T10:09:25.063Z,28.97
2023-10-19T10:10:29.876Z,28.96
2023-10-19T10:11:32.230Z,28.96
2023-10-19T10:12:36.332Z,28.96
2023-10-19T10:13:38.906Z,28.95
2023-10-19T10:14:58.752Z,29.08
2023-10-19T10:16:05.230Z,29.02
2023-10-19T10:17:10.816Z,29.02
2023-10-19T10:18:18.507Z,29.07
2023-10-19T10:19:22.604Z,29.05
2023-10-19T10:20:25.294Z,29.01
2023-10-19T10:21:29.338Z,29.03
2023-10-19T10:22:32.891Z,29.04
2023-10-19T10:23:41.381Z,29.05
2023-10-19T10:24:44.466Z,29.06
2023-10-19T10:25:55.070Z,29.11
2023-10-19T10:27:04.476Z,29.14
2023-10-19T10:28:07.809Z,29.10
2023-10-19T10:29:15.735Z,29.14
2023-10-19T10:30:18.464Z,29.11
2023-10-19T10:31:23.116Z,29.12
2023-10-19T10:32:49.573Z,29.25
2023-10-19T10:33:55.999Z,29.15
2023-10-19T10:34:58.720Z,29.13
2023-10-19T10:36:02.098Z,29.12
2023-10-19T10:37:15.495Z,29.13
2023-10-19T10:38:18.681Z,29.14
2023-10-19T10:39:26.165Z,29.15
2023-10-19T10:40:31.022Z,29.17
2023-10-19T10:41:33.300Z,29.15
2023-10-19T10:42:35.846Z,29.14
2023-10-19T10:43:56.806Z,29.26
2023-10-19T10:44:59.377Z,29.20
2023-10-19T10:46:22.374Z,29.24
2023-10-19T10:47:31.709Z,29.22
2023-10-19T10:48:34.379Z,29.21
2023-10-19T10:50:00.384Z,29.32
2023-10-19T10:51:03.165Z,29.22
2023-10-19T10:52:05.581Z,29.21
2023-10-19T10:53:09.247Z,29.21
2023-10-19T10:54:15.300Z,29.20
2023-10-19T10:55:17.996Z,29.22
2023-10-19T10:56:23.275Z,29.23
2023-10-19T10:57:35.443Z,29.21
2023-10-19T10:58:38.045Z,29.23
2023-10-19T10:59:40.428Z,29.23
2023-10-19T11:00:48.612Z,29.27
2023-10-19T11:01:51.474Z,29.24
2023-10-19T11:03:11.721Z,29.36
2023-10-19T11:04:16.424Z,29.28
2023-10-19T11:05:22.244Z,29.24
2023-10-19T11:06:24.955Z,29.26
2023-10-19T11:07:27.421Z,29.26
2023-10-19T11:08:29.713Z,29.27
2023-10-19T11:09:45.926Z,29.36
2023-10-19T11:10:49.051Z,29.27
2023-10-19T11:11:53.467Z,29.26
2023-10-19T11:13:06.162Z,29.33
2023-10-19T11:14:15.078Z,29.32
2023-10-19T11:15:23.234Z,29.35
2023-10-19T11:16:25.784Z,29.28
2023-10-19T11:17:33.903Z,29.30
2023-10-19T11:18:50.981Z,29.33
2023-10-19T11:19:53.922Z,29.32
2023-10-19T11:21:01.292Z,29.30
2023-10-19T11:22:03.958Z,29.32
2023-10-19T11:23:08.286Z,29.32
2023-10-19T11:24:25.241Z,29.33
2023-10-19T11:25:33.467Z,29.39
2023-10-19T11:26:42.611Z,29.47
2023-10-19T11:27:46.124Z,29.43
2023-10-19T11:28:58.370Z,29.46
2023-10-19T11:30:08.419Z,29.52
2023-10-19T11:31:25.176Z,29.60
2023-10-19T11:32:39.507Z,29.53
2023-10-19T11:33:49.945Z,29.61
2023-10-19T11:34:56.435Z,29.59
2023-10-19T11:35:58.818Z,29.59
2023-10-19T11:37:01.657Z,29.59
2023-10-19T11:38:05.323Z,29.59
2023-10-19T11:39:12.606Z,29.57
2023-10-19T11:40:14.942Z,29.56
2023-10-19T11:41:18.205Z,29.55
2023-10-19T11:42:21.093Z,29.54
2023-10-19T11:43:23.557Z,29.53
2023-10-19T11:44:25.868Z,29.55
2023-10-19T11:45:30.078Z,29.54
2023-10-19T11:46:32.617Z,29.57
2023-10-19T11:47:35.034Z,29.59
2023-10-19T11:48:38.310Z,29.60
2023-10-19T11:49:41.441Z,29.62
2023-10-19T11:50:43.942Z,29.61
2023-10-19T11:51:46.281Z,29.64
2023-10-19T11:52:49.411Z,29.62
2023-10-19T11:53:51.963Z,29.66
2023-10-19T11:54:55.381Z,29.67
2023-10-19T11:55:57.888Z,29.65
2023-10-19T11:57:00.529Z,29.64
2023-10-19T11:58:03.236Z,29.63
2023-10-19T11:59:05.750Z,29.60
2023-10-19T12:00:14.782Z,29.56
2023-10-19T12:01:20.321Z,29.55
2023-10-19T12:02:22.687Z,29.51
2023-10-19T12:03:25.130Z,29.49
2023-10-19T12:04:27.616Z,29.47
2023-10-19T12:05:30.537Z,29.45
2023-10-19T12:06:33.206Z,29.42
2023-10-19T12:07:35.528Z,29.42
2023-10-19T12:08:41.532Z,29.39
2023-10-19T12:09:46.057Z,29.38
2023-10-19T12:10:48.474Z,29.39
2023-10-19T12:11:50.794Z,29.36
2023-10-19T12:13:01.426Z,29.34
2023-10-19T12:14:05.372Z,29.34
2023-10-19T12:15:08.871Z,29.32
2023-10-19T12:16:13.710Z,29.31
2023-10-19T12:17:16.430Z,29.28
2023-10-19T12:18:20.978Z,29.28
2023-10-19T12:19:23.583Z,29.27
2023-10-19T12:20:26.201Z,29.25
2023-10-19T12:21:29.531Z,29.22
2023-10-19T12:22:38.848Z,29.23
2023-10-19T12:23:52.126Z,29.26
2023-10-19T12:24:55.990Z,29.24
2023-10-19T12:25:58.341Z,29.22
2023-10-19T12:27:01.077Z,29.20
2023-10-19T12:28:05.460Z,29.19
2023-10-19T12:29:11.580Z,29.17
2023-10-19T12:30:23.607Z,29.18
2023-10-19T12:31:26.673Z,29.17
2023-10-19T12:32:29.126Z,29.17
2023-10-19T12:33:31.866Z,29.14
2023-10-19T12:34:34.466Z,29.12
2023-10-19T12:35:46.469Z,29.10
2023-10-19T12:36:50.982Z,29.12
2023-10-19T12:37:53.462Z,29.10
2023-10-19T12:38:56.365Z,29.11
2023-10-19T12:39:59.353Z,29.06
2023-10-19T12:41:02.086Z,29.05
2023-10-19T12:42:04.788Z,29.05
2023-10-19T12:43:08.854Z,29.05
2023-10-19T12:44:13.602Z,29.05
2023-10-19T12:45:16.511Z,29.06
2023-10-19T12:46:20.425Z,29.04
2023-10-19T12:47:25.263Z,29.05
2023-10-19T12:48:31.788Z,29.02
2023-10-19T12:49:34.051Z,29.04
2023-10-19T12:50:37.374Z,29.01
2023-10-19T12:51:43.568Z,29.02
2023-10-19T12:52:46.785Z,28.99
2023-10-19T12:53:49.258Z,29.00
2023-10-19T12:55:03.663Z,28.97
2023-10-19T12:56:09.169Z,29.01
2023-10-19T12:57:11.559Z,28.99
2023-10-19T12:58:16.341Z,28.96
2023-10-19T12:59:19.660Z,28.98
2023-10-19T13:00:25.152Z,28.98
2023-10-19T13:01:29.342Z,28.97
2023-10-19T13:02:32.199Z,28.97
2023-10-19T13:03:34.822Z,28.97
2023-10-19T13:04:37.884Z,28.94
2023-10-19T13:05:41.791Z,28.94
2023-10-19T13:06:44.879Z,28.95
2023-10-19T13:07:47.319Z,28.94
2023-10-19T13:08:49.817Z,28.93
2023-10-19T13:09:52.181Z,28.94
2023-10-19T13:10:59.020Z,28.92
2023-10-19T13:12:09.103Z,28.94
2023-10-19T13:13:13.436Z,28.95
2023-10-19T13:14:16.741Z,28.93
2023-10-19T13:15:19.493Z,28.91
2023-10-19T13:16:22.073Z,28.90
2023-10-19T13:17:26.354Z,28.91
2023-10-19T13:18:35.290Z,28.90
2023-10-19T13:19:38.508Z,28.91
2023-10-19T13:20:45.057Z,28.91
2023-10-19T13:21:50.380Z,28.90
2023-10-19T13:22:53.169Z,28.90
2023-10-19T13:23:55.543Z,28.89
2023-10-19T13:24:57.859Z,28.87
2023-10-19T13:26:16.576Z,28.89
2023-10-19T13:27:19.353Z,28.90
2023-10-19T13:28:23.721Z,28.91
2023-10-19T13:29:28.024Z,28.88
2023-10-19T13:30:30.666Z,28.89
2023-10-19T13:31:33.966Z,28.89
2023-10-19T13:32:36.744Z,28.86
2023-10-19T13:33:39.407Z,28.87
2023-10-19T13:34:41.976Z,28.85
2023-10-19T13:35:45.699Z,28.88
2023-10-19T13:36:48.450Z,28.86
2023-10-19T13:37:50.890Z,28.85
2023-10-19T13:38:54.533Z,28.85
2023-10-19T13:39:57.044Z,28.86
2023-10-19T13:40:59.426Z,28.84
2023-10-19T13:42:01.689Z,28.85
2023-10-19T13:43:08.611Z,28.86
2023-10-19T13:44:11.407Z,28.85
2023-10-19T13:45:15.840Z,28.85
2023-10-19T13:46:18.255Z,28.84
2023-10-19T13:47:20.811Z,28.84
2023-10-19T13:48:24.353Z,28.83
2023-10-19T13:49:26.871Z,28.84
2023-10-19T13:50:30.715Z,28.84
2023-10-19T13:51:34.282Z,28.83
2023-10-19T13:52:37.299Z,28.82
2023-10-19T13:53:40.872Z,28.82
2023-10-19T13:54:43.314Z,28.82
2023-10-19T13:55:47.222Z,28.80
2023-10-19T13:56:49.603Z,28.82
2023-10-19T13:57:52.633Z,28.81
2023-10-19T13:58:57.095Z,28.81
2023-10-19T13:59:59.448Z,28.81